Time;durP1;ratioP1;P1;durP2;ratioP2;P2;SDS_P1;SDS_P2;PMS_P1;PMS_P2;Temp;Humidity;BMP_temperature;BMP_pressure;BME280_temperature;BME280_humidity;BME280_pressure;Samples;Min_cycle;Max_cycle;Signal;HPM_P1;HPM_P2
2022/07/28 00:02:18;;;;;;;13.60;8.98;;;;;;;-148.14;100.00;65945.72;5027090;28;20510;-88
2022/07/28 00:04:44;;;;;;;12.63;8.90;;;;;;;-148.14;100.00;65945.72;5053907;28;20021;-88
2022/07/28 00:07:10;;;;;;;12.77;9.48;;;;;;;-148.14;100.00;65945.72;5028917;28;20045;-88
2022/07/28 00:09:37;;;;;;;12.20;9.35;;;;;;;-148.14;100.00;65945.72;5049948;28;20035;-88
2022/07/28 00:12:03;;;;;;;12.73;9.05;;;;;;;-148.14;100.00;65945.72;5036845;28;20453;-87
2022/07/28 00:14:29;;;;;;;14.02;9.23;;;;;;;-148.14;100.00;65945.72;5034657;28;20033;-88
2022/07/28 00:16:54;;;;;;;10.55;8.30;;;;;;;-148.14;100.00;65945.72;5037018;28;20055;-88
2022/07/28 00:19:20;;;;;;;15.23;8.98;;;;;;;-148.14;100.00;65945.72;5034710;28;20078;-89
2022/07/28 00:21:46;;;;;;;14.05;9.15;;;;;;;-148.14;100.00;65945.72;5026427;28;20025;-87
2022/07/28 00:24:11;;;;;;;11.93;8.70;;;;;;;-148.14;100.00;65945.72;5052121;28;20056;-87
2022/07/28 00:26:37;;;;;;;10.75;8.48;;;;;;;-148.14;100.00;65945.72;5040322;28;20425;-87
2022/07/28 00:29:03;;;;;;;12.50;7.80;;;;;;;-148.14;100.00;65945.72;5028946;28;20546;-88
2022/07/28 00:31:29;;;;;;;10.85;7.15;;;;;;;-148.14;100.00;65945.72;5026893;28;20406;-87
2022/07/28 00:33:55;;;;;;;10.23;7.03;;;;;;;-148.14;100.00;65945.72;5052155;28;20029;-88
2022/07/28 00:36:20;;;;;;;11.82;7.38;;;;;;;-148.14;100.00;65945.72;5023566;28;20118;-86
2022/07/28 00:38:46;;;;;;;11.05;6.32;;;;;;;-148.14;100.00;65945.72;5025831;28;20395;-87
2022/07/28 00:41:12;;;;;;;10.95;6.10;;;;;;;-148.14;100.00;65945.72;5037385;28;20033;-88
2022/07/28 00:43:38;;;;;;;12.02;6.53;;;;;;;-148.14;100.00;65945.72;5057098;28;20470;-88
2022/07/28 00:46:04;;;;;;;8.40;5.80;;;;;;;-148.14;100.00;65945.72;5027503;28;20037;-89
2022/07/28 00:48:30;;;;;;;7.47;5.60;;;;;;;-148.14;100.00;65945.72;5038231;28;20509;-87
2022/07/28 00:50:56;;;;;;;9.25;5.20;;;;;;;-148.14;100.00;65945.72;5013693;28;20040;-88
2022/07/28 00:53:22;;;;;;;10.50;5.47;;;;;;;-148.14;100.00;65945.72;5038294;28;20029;-87
2022/07/28 00:55:48;;;;;;;6.53;5.63;;;;;;;-148.14;100.00;65945.72;5058696;28;20060;-87
2022/07/28 00:58:14;;;;;;;10.52;5.80;;;;;;;-148.14;100.00;65945.72;5059255;28;20028;-87
2022/07/28 01:00:39;;;;;;;8.07;5.20;;;;;;;-148.14;100.00;65945.72;5058846;28;20040;-87
2022/07/28 01:03:05;;;;;;;11.43;5.95;;;;;;;-148.14;100.00;65945.72;5032950;28;20092;-87
2022/07/28 01:05:44;;;;;;;10.35;5.28;;;;;;;-148.14;100.00;65945.72;5054524;28;20501;-87
2022/07/28 01:08:46;;;;;;;8.30;5.22;;;;;;;-148.14;100.00;65945.72;5031184;28;20083;-88
2022/07/28 01:11:20;;;;;;;7.18;4.70;;;;;;;-148.14;100.00;65945.72;5030022;28;20037;-88
2022/07/28 01:14:23;;;;;;;6.88;4.63;;;;;;;-148.14;100.00;65945.72;5030732;28;20087;-87
2022/07/28 01:16:58;;;;;;;8.07;4.78;;;;;;;-148.14;100.00;65945.72;4961046;28;20533;-87
2022/07/28 01:19:45;;;;;;;8.48;5.20;;;;;;;-148.14;100.00;65945.72;5040350;28;20029;-87
2022/07/28 01:22:16;;;;;;;8.05;5.25;;;;;;;-148.14;100.00;65945.72;5032695;28;20558;-87
2022/07/28 01:24:42;;;;;;;9.43;5.32;;;;;;;-148.14;100.00;65945.72;5054091;28;20063;-87
2022/07/28 01:27:25;;;;;;;8.60;4.70;;;;;;;-148.14;100.00;65945.72;5038202;28;20029;-87
2022/07/28 01:30:24;;;;;;;8.38;4.65;;;;;;;-148.14;100.00;65945.72;5054053;28;20403;-88
2022/07/28 01:33:01;;;;;;;8.50;5.00;;;;;;;-148.14;100.00;65945.72;5034861;28;20051;-87
2022/07/28 01:35:31;;;;;;;7.53;5.28;;;;;;;-148.14;100.00;65945.72;5031581;28;20028;-88
2022/07/28 01:38:01;;;;;;;8.02;4.65;;;;;;;-148.14;100.00;65945.72;5021836;28;20449;-86
2022/07/28 01:40:32;;;;;;;7.70;4.63;;;;;;;-148.14;100.00;65945.72;5055597;28;20025;-88
2022/07/28 01:43:00;;;;;;;6.15;4.65;;;;;;;-148.14;100.00;65945.72;5056422;28;20036;-87
2022/07/28 01:45:27;;;;;;;5.28;4.60;;;;;;;-148.14;100.00;65945.72;5054336;28;20101;-87
2022/07/28 01:47:55;;;;;;;5.55;4.57;;;;;;;-148.14;100.00;65945.72;5029428;28;20037;-86
2022/07/28 01:50:23;;;;;;;5.60;4.32;;;;;;;-148.14;100.00;65945.72;5007974;28;20033;-87
2022/07/28 01:52:50;;;;;;;6.72;4.13;;;;;;;-148.14;100.00;65945.72;5037345;28;20035;-87
2022/07/28 01:55:19;;;;;;;7.97;4.10;;;;;;;-148.14;100.00;65945.72;5028864;28;20024;-89
2022/07/28 01:57:46;;;;;;;8.98;4.10;;;;;;;-148.14;100.00;65945.72;5054631;28;20098;-88
2022/07/28 02:00:13;;;;;;;7.50;4.35;;;;;;;-148.14;100.00;65945.72;5029926;28;20494;-86
2022/07/28 02:02:41;;;;;;;5.80;4.30;;;;;;;-148.14;100.00;65945.72;5055021;28;20063;-88
2022/07/28 02:05:10;;;;;;;6.97;4.30;;;;;;;-148.14;100.00;65945.72;5030849;28;20112;-88
2022/07/28 02:07:38;;;;;;;4.97;4.30;;;;;;;-148.14;100.00;65945.72;5035817;28;20055;-86
2022/07/28 02:10:05;;;;;;;11.10;5.65;;;;;;;-148.14;100.00;65945.72;5054197;28;20054;-89
2022/07/28 02:12:33;;;;;;;8.52;5.22;;;;;;;-148.14;100.00;65945.72;5052363;28;20036;-88
2022/07/28 02:14:59;;;;;;;6.32;4.60;;;;;;;-148.14;100.00;65945.72;5011745;28;20479;-88
2022/07/28 02:17:30;;;;;;;9.00;5.63;;;;;;;-148.14;100.00;65945.72;5055847;28;20033;-88
2022/07/28 02:19:57;;;;;;;6.43;5.18;;;;;;;-148.14;100.00;65945.72;5038696;28;20463;-88
2022/07/28 02:22:25;;;;;;;7.93;5.22;;;;;;;-148.14;100.00;65945.72;5021867;28;20359;-88
2022/07/28 02:24:54;;;;;;;9.98;6.00;;;;;;;-148.14;100.00;65945.72;5020796;28;20033;-88
2022/07/28 02:27:41;;;;;;;16.80;6.22;;;;;;;-148.14;100.00;65945.72;5037594;28;20025;-89
2022/07/28 02:30:15;;;;;;;14.15;6.43;;;;;;;-148.14;100.00;65945.72;5020688;28;20073;-88
2022/07/28 02:32:53;;;;;;;8.18;6.35;;;;;;;-148.14;100.00;65945.72;5030052;28;20440;-89
2022/07/28 02:35:31;;;;;;;10.75;6.93;;;;;;;-148.14;100.00;65945.72;5055382;28;20024;-88
2022/07/28 02:38:05;;;;;;;9.07;6.60;;;;;;;-148.14;100.00;65945.72;5052694;28;20048;-87
2022/07/28 02:40:36;;;;;;;7.70;6.90;;;;;;;-148.14;100.00;65945.72;5020185;28;20024;-88
2022/07/28 02:43:09;;;;;;;10.45;6.55;;;;;;;-148.14;100.00;65945.72;5045937;28;20470;-88
2022/07/28 02:45:38;;;;;;;11.25;6.82;;;;;;;-148.14;100.00;65945.72;5019098;28;20033;-88
2022/07/28 02:48:09;;;;;;;9.98;7.28;;;;;;;-148.14;100.00;65945.72;5027975;28;20021;-88
2022/07/28 02:50:35;;;;;;;9.95;7.07;;;;;;;-148.14;100.00;65945.72;5030038;28;20075;-87
2022/07/28 02:53:04;;;;;;;9.10;6.97;;;;;;;-148.14;100.00;65945.72;5052685;28;20435;-88
2022/07/28 02:55:31;;;;;;;10.85;6.88;;;;;;;-148.14;100.00;65945.72;5037741;28;20017;-88
2022/07/28 02:57:58;;;;;;;8.57;6.85;;;;;;;-148.14;100.00;65945.72;5029966;28;20387;-88
2022/07/28 03:00:26;;;;;;;11.27;7.18;;;;;;;-148.14;100.00;65945.72;5053266;28;20044;-88
2022/07/28 03:02:54;;;;;;;9.15;6.40;;;;;;;-148.14;100.00;65945.72;5036012;28;20084;-88
2022/07/28 03:05:19;;;;;;;9.85;6.78;;;;;;;-148.14;100.00;65945.72;5024982;28;20037;-88
2022/07/28 03:07:51;;;;;;;9.68;7.40;;;;;;;-148.14;100.00;65945.72;5035296;28;20037;-88
2022/07/28 03:10:26;;;;;;;10.57;6.70;;;;;;;-148.14;100.00;65945.72;5052222;28;20098;-88
2022/07/28 03:12:52;;;;;;;8.45;6.40;;;;;;;-148.14;100.00;65945.72;5029817;28;20096;-87
2022/07/28 03:15:18;;;;;;;8.38;6.53;;;;;;;-148.14;100.00;65945.72;5018703;28;20032;-88
2022/07/28 03:17:43;;;;;;;8.20;6.72;;;;;;;-148.14;100.00;65945.72;5018525;28;20032;-87
2022/07/28 03:20:10;;;;;;;10.52;7.03;;;;;;;-148.14;100.00;65945.72;5027767;28;20033;-88
2022/07/28 03:22:36;;;;;;;8.82;7.10;;;;;;;-148.14;100.00;65945.72;5033876;28;20545;-88
2022/07/28 03:25:07;;;;;;;10.43;6.50;;;;;;;-148.14;100.00;65945.72;5018279;28;20037;-88
2022/07/28 03:27:39;;;;;;;12.90;6.40;;;;;;;-148.14;100.00;65945.72;5010329;28;20043;-87
2022/07/28 03:30:18;;;;;;;9.27;7.30;;;;;;;-148.14;100.00;65945.72;5052933;28;20087;-88
2022/07/28 03:32:53;;;;;;;7.93;5.97;;;;;;;-148.14;100.00;65945.72;5010913;28;20030;-87
2022/07/28 03:35:19;;;;;;;8.65;5.82;;;;;;;-148.14;100.00;65945.72;5018016;28;20021;-88
2022/07/28 03:38:12;;;;;;;9.25;5.53;;;;;;;-148.14;100.00;65945.72;5010231;28;20083;-87
2022/07/28 03:40:38;;;;;;;5.40;4.88;;;;;;;-148.14;100.00;65945.72;5014161;28;20048;-88
2022/07/28 03:43:07;;;;;;;8.80;5.15;;;;;;;-148.14;100.00;65945.72;5030764;28;20025;-89
2022/07/28 03:45:34;;;;;;;10.07;5.95;;;;;;;-148.14;100.00;65945.72;5009093;28;20037;-89
2022/07/28 03:48:00;;;;;;;14.73;5.80;;;;;;;-148.14;100.00;65945.72;5013938;28;20028;-87
2022/07/28 03:50:32;;;;;;;10.73;5.78;;;;;;;-148.14;100.00;65945.72;5030246;28;20029;-88
2022/07/28 03:52:58;;;;;;;10.30;5.47;;;;;;;-148.14;100.00;65945.72;5053402;28;20131;-88
2022/07/28 03:55:25;;;;;;;7.75;5.22;;;;;;;-148.14;100.00;65945.72;5028200;28;20429;-88
2022/07/28 03:57:51;;;;;;;8.63;6.03;;;;;;;-148.14;100.00;65945.72;5028118;28;20079;-88
2022/07/28 04:00:18;;;;;;;11.95;6.22;;;;;;;-148.14;100.00;65945.72;5033236;28;20029;-89
2022/07/28 04:02:45;;;;;;;9.15;5.75;;;;;;;-148.14;100.00;65945.72;5064068;28;20032;-88
2022/07/28 04:05:12;;;;;;;6.97;5.63;;;;;;;-148.14;100.00;65945.72;5038091;28;20033;-88
2022/07/28 04:07:39;;;;;;;8.05;5.35;;;;;;;-148.14;100.00;65945.72;5016302;28;20064;-87
2022/07/28 04:10:10;;;;;;;7.05;5.47;;;;;;;-148.14;100.00;65945.72;5032247;28;20031;-87
2022/07/28 04:12:56;;;;;;;8.15;5.68;;;;;;;-148.14;100.00;65945.72;5053761;28;20116;-88
2022/07/28 04:15:23;;;;;;;8.75;5.47;;;;;;;-148.14;100.00;65945.72;5053651;28;20025;-88
2022/07/28 04:17:54;;;;;;;8.52;6.00;;;;;;;-148.14;100.00;65945.72;5036380;28;20091;-88
2022/07/28 04:20:22;;;;;;;11.77;5.93;;;;;;;-148.14;100.00;65945.72;5027683;28;20027;-88
2022/07/28 04:22:48;;;;;;;8.70;4.95;;;;;;;-148.14;100.00;65945.72;5036336;28;20029;-88
2022/07/28 04:25:16;;;;;;;6.45;5.10;;;;;;;-148.14;100.00;65945.72;5023400;28;20449;-88
2022/07/28 04:27:42;;;;;;;7.20;5.63;;;;;;;-148.14;100.00;65945.72;5019482;28;20032;-89
2022/07/28 04:30:17;;;;;;;7.88;5.63;;;;;;;-148.14;100.00;65945.72;5035743;28;20060;-89
2022/07/28 04:32:44;;;;;;;7.22;5.75;;;;;;;-148.14;100.00;65945.72;5019965;28;20033;-88
2022/07/28 04:35:10;;;;;;;6.68;5.78;;;;;;;-148.14;100.00;65945.72;5052904;28;20021;-89
2022/07/28 04:37:37;;;;;;;7.82;5.72;;;;;;;-148.14;100.00;65945.72;5036785;28;20538;-88
2022/07/28 04:40:04;;;;;;;6.13;5.18;;;;;;;-148.14;100.00;65945.72;5036995;28;20032;-88
2022/07/28 04:42:30;;;;;;;7.50;5.65;;;;;;;-148.14;100.00;65945.72;5037843;28;20029;-89
2022/07/28 04:44:55;;;;;;;6.63;5.63;;;;;;;-148.14;100.00;65945.72;5020455;28;20036;-89
2022/07/28 04:47:23;;;;;;;9.43;6.28;;;;;;;-148.14;100.00;65945.72;5020798;28;20036;-90
2022/07/28 04:49:49;;;;;;;8.77;6.10;;;;;;;-148.14;100.00;65945.72;5034699;28;20113;-89
2022/07/28 04:52:14;;;;;;;7.43;6.10;;;;;;;-148.14;100.00;65945.72;5035427;28;20052;-88
2022/07/28 04:54:40;;;;;;;10.00;6.20;;;;;;;-148.14;100.00;65945.72;5035634;28;20027;-89
2022/07/28 04:57:06;;;;;;;7.88;6.20;;;;;;;-148.14;100.00;65945.72;5035168;28;20074;-89
2022/07/28 04:59:34;;;;;;;7.43;5.90;;;;;;;-148.14;100.00;65945.72;5053124;28;20426;-89
2022/07/28 05:02:01;;;;;;;9.77;7.05;;;;;;;-148.14;100.00;65945.72;5037966;28;20040;-89
2022/07/28 05:04:26;;;;;;;10.75;5.85;;;;;;;-148.14;100.00;65945.72;5019779;28;20029;-89
2022/07/28 05:06:52;;;;;;;9.52;6.45;;;;;;;-148.14;100.00;65945.72;5019411;28;20106;-88
2022/07/28 05:09:17;;;;;;;9.40;6.25;;;;;;;-148.14;100.00;65945.72;5018494;28;20029;-88
2022/07/28 05:11:43;;;;;;;11.07;6.78;;;;;;;-148.14;100.00;65945.72;5052694;28;20036;-88
2022/07/28 05:14:09;;;;;;;10.15;5.78;;;;;;;-148.14;100.00;65945.72;5034342;28;20029;-88
2022/07/28 05:16:35;;;;;;;11.77;6.65;;;;;;;-148.14;100.00;65945.72;5050907;28;20021;-89
2022/07/28 05:19:00;;;;;;;8.45;6.45;;;;;;;-148.14;100.00;65945.72;5052636;28;20033;-88
2022/07/28 05:21:26;;;;;;;9.90;6.82;;;;;;;-148.14;100.00;65945.72;5035127;28;20029;-88
2022/07/28 05:23:52;;;;;;;8.52;6.13;;;;;;;-148.14;100.00;65945.72;5019107;28;20033;-88
2022/07/28 05:26:17;;;;;;;7.50;5.97;;;;;;;-148.14;100.00;65945.72;5057072;28;20071;-88
2022/07/28 05:28:43;;;;;;;9.77;6.68;;;;;;;-148.14;100.00;65945.72;5039562;28;20029;-88
2022/07/28 05:31:09;;;;;;;10.18;6.40;;;;;;;-148.14;100.00;65945.72;5025267;28;20131;-88
2022/07/28 05:33:35;;;;;;;9.15;6.90;;;;;;;-148.14;100.00;65945.72;5021571;28;20036;-88
2022/07/28 05:36:01;;;;;;;11.43;6.30;;;;;;;-148.14;100.00;65945.72;5022240;28;20036;-89
2022/07/28 05:38:29;;;;;;;9.85;7.40;;;;;;;-148.14;100.00;65945.72;5022770;28;20045;-89
2022/07/28 05:40:54;;;;;;;11.85;6.60;;;;;;;-148.14;100.00;65945.72;5047976;28;20041;-89
2022/07/28 05:43:20;;;;;;;11.70;6.55;;;;;;;-148.14;100.00;65945.72;5023088;28;20101;-88
2022/07/28 05:45:46;;;;;;;12.07;6.93;;;;;;;-148.14;100.00;65945.72;5028982;28;20025;-90
2022/07/28 05:48:13;;;;;;;10.48;6.93;;;;;;;-148.14;100.00;65945.72;5015756;28;20391;-88
2022/07/28 05:50:38;;;;;;;8.32;6.25;;;;;;;-148.14;100.00;65945.72;5030592;28;20036;-88
2022/07/28 05:53:04;;;;;;;10.02;6.85;;;;;;;-148.14;100.00;65945.72;5037197;28;20036;-88
2022/07/28 05:55:30;;;;;;;9.10;7.32;;;;;;;-148.14;100.00;65945.72;5029915;28;20063;-89
2022/07/28 05:57:57;;;;;;;9.90;6.85;;;;;;;-148.14;100.00;65945.72;5032691;28;20111;-88
2022/07/28 06:00:23;;;;;;;11.48;6.97;;;;;;;-148.14;100.00;65945.72;5039994;28;20372;-89
2022/07/28 06:02:49;;;;;;;9.57;5.75;;;;;;;-148.14;100.00;65945.72;5015052;28;20095;-88
2022/07/28 06:05:16;;;;;;;8.07;6.20;;;;;;;-148.14;100.00;65945.72;5055281;28;20394;-87
2022/07/28 06:07:43;;;;;;;7.85;6.25;;;;;;;-148.14;100.00;65945.72;5021050;28;20474;-88
2022/07/28 06:10:09;;;;;;;10.73;7.00;;;;;;;-148.14;100.00;65945.72;5011738;28;20043;-88
2022/07/28 06:12:49;;;;;;;10.02;6.72;;;;;;;-148.14;100.00;65945.72;5042127;28;20478;-89
2022/07/28 06:15:26;;;;;;;10.65;6.63;;;;;;;-148.14;100.00;65945.72;5034926;28;20475;-89
2022/07/28 06:17:56;;;;;;;9.32;6.75;;;;;;;-148.14;100.00;65945.72;5063133;28;20033;-87
2022/07/28 06:20:26;;;;;;;12.73;6.88;;;;;;;-148.14;100.00;65945.72;5036500;28;20059;-88
2022/07/28 06:22:53;;;;;;;10.10;7.03;;;;;;;-148.14;100.00;65945.72;5037926;28;20056;-88
2022/07/28 06:25:24;;;;;;;10.10;6.53;;;;;;;-148.14;100.00;65945.72;5041734;28;20472;-87
2022/07/28 06:27:52;;;;;;;9.90;7.13;;;;;;;-148.14;100.00;65945.72;5056161;28;20037;-87
2022/07/28 06:30:18;;;;;;;11.00;7.38;;;;;;;-148.14;100.00;65945.72;5057572;28;20099;-88
2022/07/28 06:32:44;;;;;;;10.95;6.90;;;;;;;-148.14;100.00;65945.72;5022618;28;20403;-88
2022/07/28 06:35:13;;;;;;;9.65;7.00;;;;;;;-148.14;100.00;65945.72;5055104;28;20041;-88
2022/07/28 06:37:39;;;;;;;8.40;6.50;;;;;;;-148.14;100.00;65945.72;5028520;28;20032;-87
2022/07/28 06:40:06;;;;;;;10.52;7.07;;;;;;;-148.14;100.00;65945.72;5038608;28;21040;-88
2022/07/28 06:42:32;;;;;;;6.97;5.95;;;;;;;-148.14;100.00;65945.72;5023340;28;20025;-88
2022/07/28 06:44:58;;;;;;;9.38;6.47;;;;;;;-148.14;100.00;65945.72;5030713;28;20029;-88
2022/07/28 06:47:23;;;;;;;8.10;6.85;;;;;;;-148.14;100.00;65945.72;5056636;28;20022;-88
2022/07/28 06:49:49;;;;;;;9.20;7.28;;;;;;;-148.14;100.00;65945.72;5031737;28;20039;-89
2022/07/28 06:52:19;;;;;;;8.77;7.20;;;;;;;-148.14;100.00;65945.72;5041125;28;20053;-89
2022/07/28 06:54:46;;;;;;;8.05;6.72;;;;;;;-148.14;100.00;65945.72;5058455;28;20067;-89
2022/07/28 06:57:12;;;;;;;10.23;7.43;;;;;;;-148.14;100.00;65945.72;5038128;28;20081;-90
2022/07/28 06:59:39;;;;;;;9.98;7.00;;;;;;;-148.14;100.00;65945.72;5015852;28;20049;-88
2022/07/28 07:02:05;;;;;;;12.38;6.88;;;;;;;-148.14;100.00;65945.72;5059025;28;20029;-88
2022/07/28 07:04:30;;;;;;;11.63;7.45;;;;;;;-148.14;100.00;65945.72;5058248;28;20040;-89
2022/07/28 07:06:56;;;;;;;9.02;6.53;;;;;;;-148.14;100.00;65945.72;5031642;28;20034;-89
2022/07/28 07:09:21;;;;;;;9.10;6.45;;;;;;;-148.14;100.00;65945.72;5035447;28;20533;-88
2022/07/28 07:11:47;;;;;;;11.27;6.35;;;;;;;-148.14;100.00;65945.72;5050488;28;20039;-89
2022/07/28 07:14:13;;;;;;;10.23;7.10;;;;;;;-148.14;100.00;65945.72;5032421;28;20059;-89
2022/07/28 07:16:41;;;;;;;14.35;7.40;;;;;;;-148.14;100.00;65945.72;5046110;28;20036;-88
2022/07/28 07:19:06;;;;;;;12.60;6.72;;;;;;;-148.14;100.00;65945.72;5040004;28;20028;-90
2022/07/28 07:21:32;;;;;;;10.23;6.72;;;;;;;-148.14;100.00;65945.72;5064518;28;20151;-91
2022/07/28 07:23:57;;;;;;;9.77;7.53;;;;;;;-148.14;100.00;65945.72;5021395;28;20040;-90
2022/07/28 07:26:24;;;;;;;7.03;6.32;;;;;;;-148.14;100.00;65945.72;5037828;28;20037;-90
2022/07/28 07:28:49;;;;;;;9.60;6.88;;;;;;;-148.14;100.00;65945.72;5023140;28;20041;-88
2022/07/28 07:31:15;;;;;;;12.00;7.53;;;;;;;-148.14;100.00;65945.72;5055503;28;20056;-89
2022/07/28 07:33:41;;;;;;;11.15;7.78;;;;;;;-148.14;100.00;65945.72;5009331;28;20091;-87
2022/07/28 07:36:06;;;;;;;10.85;7.28;;;;;;;-148.14;100.00;65945.72;5032175;28;20036;-87
2022/07/28 07:38:32;;;;;;;10.57;7.20;;;;;;;-148.14;100.00;65945.72;5053869;28;20083;-87
2022/07/28 07:40:58;;;;;;;8.65;6.60;;;;;;;-148.14;100.00;65945.72;5056125;28;20086;-87
2022/07/28 07:43:24;;;;;;;10.77;7.25;;;;;;;-148.14;100.00;65945.72;5012591;28;20108;-88
2022/07/28 07:45:49;;;;;;;11.02;7.90;;;;;;;-148.14;100.00;65945.72;5037607;28;20033;-89
2022/07/28 07:48:15;;;;;;;9.90;7.65;;;;;;;-148.14;100.00;65945.72;5038151;28;20479;-87
2022/07/28 07:50:41;;;;;;;10.98;8.07;;;;;;;-148.14;100.00;65945.72;5032249;28;20026;-89
2022/07/28 07:53:07;;;;;;;8.98;6.88;;;;;;;-148.14;100.00;65945.72;5053647;28;20033;-87
2022/07/28 07:55:33;;;;;;;9.00;6.97;;;;;;;-148.14;100.00;65945.72;5048949;28;20032;-87
2022/07/28 07:57:58;;;;;;;12.35;7.68;;;;;;;-148.14;100.00;65945.72;5008888;28;20491;-88
2022/07/28 08:00:24;;;;;;;8.52;7.50;;;;;;;-148.14;100.00;65945.72;5034065;28;20029;-88
2022/07/28 08:02:50;;;;;;;10.27;7.90;;;;;;;-148.14;100.00;65945.72;5052407;28;20628;-88
2022/07/28 08:05:16;;;;;;;10.63;8.35;;;;;;;-148.14;100.00;65945.72;5051538;28;20680;-88
2022/07/28 08:07:42;;;;;;;11.30;8.25;;;;;;;-148.14;100.00;65945.72;5040925;28;20044;-87
2022/07/28 08:10:08;;;;;;;11.70;8.05;;;;;;;-148.14;100.00;65945.72;5032450;28;20049;-87
2022/07/28 08:12:34;;;;;;;14.77;8.55;;;;;;;-148.14;100.00;65945.72;5026959;28;20051;-87
2022/07/28 08:15:00;;;;;;;12.93;8.15;;;;;;;-148.14;100.00;65945.72;5051280;28;20119;-87
2022/07/28 08:17:26;;;;;;;9.82;8.07;;;;;;;-148.14;100.00;65945.72;5010598;28;20403;-87
2022/07/28 08:19:52;;;;;;;11.82;7.20;;;;;;;-148.14;100.00;65945.72;5014525;28;20115;-88
2022/07/28 08:22:18;;;;;;;12.48;7.78;;;;;;;-148.14;100.00;65945.72;5026402;28;20033;-88
2022/07/28 08:24:44;;;;;;;10.13;7.75;;;;;;;-148.14;100.00;65945.72;5053741;28;20136;-88
2022/07/28 08:27:09;;;;;;;12.13;8.20;;;;;;;-148.14;100.00;65945.72;5054998;28;20037;-87
2022/07/28 08:29:35;;;;;;;13.23;8.10;;;;;;;-148.14;100.00;65945.72;5030580;28;20083;-87
2022/07/28 08:32:04;;;;;;;9.43;7.25;;;;;;;-148.14;100.00;65945.72;5014155;28;20029;-88
2022/07/28 08:34:30;;;;;;;10.57;7.82;;;;;;;-148.14;100.00;65945.72;5036422;28;20036;-88
2022/07/28 08:36:56;;;;;;;9.07;7.30;;;;;;;-148.14;100.00;65945.72;5020654;28;20083;-87
2022/07/28 08:39:22;;;;;;;9.55;7.88;;;;;;;-148.14;100.00;65945.72;5025755;28;20033;-87
2022/07/28 08:41:53;;;;;;;9.85;7.57;;;;;;;-148.14;100.00;65945.72;5054497;28;20024;-89
2022/07/28 08:44:23;;;;;;;12.73;7.75;;;;;;;-148.14;100.00;65945.72;5027063;28;20063;-87
2022/07/28 08:46:49;;;;;;;12.77;7.40;;;;;;;-148.14;100.00;65945.72;5030749;28;20037;-88
2022/07/28 08:49:16;;;;;;;10.75;7.45;;;;;;;-148.14;100.00;65945.72;5010713;28;20443;-86
2022/07/28 08:51:43;;;;;;;10.63;7.68;;;;;;;-148.14;100.00;65945.72;5025487;28;20107;-87
2022/07/28 08:54:18;;;;;;;14.35;7.70;;;;;;;-148.14;100.00;65945.72;5007886;28;20021;-90
2022/07/28 08:56:46;;;;;;;9.07;7.70;;;;;;;-148.14;100.00;65945.72;5020555;28;20081;-89
2022/07/28 08:59:12;;;;;;;9.93;6.65;;;;;;;-148.14;100.00;65945.72;5023080;28;20041;-87
2022/07/28 09:01:38;;;;;;;14.13;7.40;;;;;;;-148.14;100.00;65945.72;5057856;28;20090;-90
2022/07/28 09:04:07;;;;;;;13.27;7.05;;;;;;;-148.14;100.00;65945.72;5040424;28;20096;-89
2022/07/28 09:06:34;;;;;;;9.25;7.22;;;;;;;-148.14;100.00;65945.72;5041943;28;20040;-87
2022/07/28 09:08:59;;;;;;;13.68;7.10;;;;;;;-148.14;100.00;65945.72;5061851;28;20111;-88
2022/07/28 09:11:28;;;;;;;12.50;6.30;;;;;;;-148.14;100.00;65945.72;5035464;28;20063;-87
2022/07/28 09:13:54;;;;;;;13.70;6.00;;;;;;;-148.14;100.00;65945.72;5045604;28;20025;-88
2022/07/28 09:16:20;;;;;;;13.75;6.88;;;;;;;-148.14;100.00;65945.72;5035393;28;20036;-89
2022/07/28 09:18:46;;;;;;;11.32;5.68;;;;;;;-148.14;100.00;65945.72;5036158;28;20033;-91
2022/07/28 09:21:14;;;;;;;9.85;6.13;;;;;;;-148.14;100.00;65945.72;5040143;28;20029;-89
2022/07/28 09:23:48;;;;;;;13.43;6.43;;;;;;;-148.14;100.00;65945.72;5035251;28;20497;-90
2022/07/28 09:26:15;;;;;;;11.07;5.90;;;;;;;-148.14;100.00;65945.72;5035521;28;20104;-90
2022/07/28 09:28:51;;;;;;;7.70;6.00;;;;;;;-148.14;100.00;65945.72;5043777;28;20403;-91
2022/07/28 09:31:17;;;;;;;10.05;5.95;;;;;;;-148.14;100.00;65945.72;5046160;28;20041;-90
2022/07/28 09:33:54;;;;;;;9.73;6.38;;;;;;;-148.14;100.00;65945.72;5022581;28;20036;-87
2022/07/28 09:36:21;;;;;;;9.27;5.78;;;;;;;-148.14;100.00;65945.72;5047276;28;20057;-90
2022/07/28 09:38:47;;;;;;;7.95;6.43;;;;;;;-148.14;100.00;65945.72;5064597;28;20087;-91
2022/07/28 09:41:17;;;;;;;6.70;5.57;;;;;;;-148.14;100.00;65945.72;5016635;28;20029;-87
2022/07/28 09:43:44;;;;;;;11.18;5.68;;;;;;;-148.14;100.00;65945.72;5012974;28;20100;-87
2022/07/28 09:46:17;;;;;;;8.45;5.28;;;;;;;-148.14;100.00;65945.72;5029538;28;20088;-88
2022/07/28 09:48:51;;;;;;;8.23;5.50;;;;;;;-148.14;100.00;65945.72;5048336;28;20384;-87
2022/07/28 09:51:18;;;;;;;;;;;;;;;-148.14;100.00;65945.72;5032860;28;20037;-86
2022/07/28 09:53:43;;;;;;;14.27;5.97;;;;;;;-148.14;100.00;65945.72;5045446;28;19924;-87
2022/07/28 09:56:11;;;;;;;11.10;5.50;;;;;;;-148.14;100.00;65945.72;5038222;28;20106;-87
2022/07/28 09:58:38;;;;;;;10.13;5.50;;;;;;;-148.14;100.00;65945.72;5029380;28;20039;-86
2022/07/28 10:01:12;;;;;;;9.13;5.35;;;;;;;-148.14;100.00;65945.72;5040180;28;20029;-80
2022/07/28 10:03:39;;;;;;;4.70;4.30;;;;;;;-148.14;100.00;65945.72;5051895;28;20029;-81
2022/07/28 10:06:10;;;;;;;8.63;5.40;;;;;;;-148.14;100.00;65945.72;5042481;28;20037;-81
2022/07/28 10:08:42;;;;;;;9.27;5.72;;;;;;;-148.14;100.00;65945.72;5030812;28;20040;-84
2022/07/28 10:11:08;;;;;;;9.93;6.35;;;;;;;-148.14;100.00;65945.72;5034931;28;20032;-81
2022/07/28 10:13:34;;;;;;;8.30;4.78;;;;;;;-148.14;100.00;65945.72;5036910;28;20116;-81
2022/07/28 10:16:10;;;;;;;7.43;5.03;;;;;;;-148.14;100.00;65945.72;5054882;28;20053;-84
2022/07/28 10:18:38;;;;;;;11.30;5.32;;;;;;;-148.14;100.00;65945.72;5035107;28;20033;-81
2022/07/28 10:21:08;;;;;;;6.05;5.15;;;;;;;-148.14;100.00;65945.72;5046070;28;20087;-83
2022/07/28 10:23:40;;;;;;;9.18;5.05;;;;;;;-148.14;100.00;65945.72;5053344;28;20565;-83
2022/07/28 10:26:10;;;;;;;6.68;4.50;;;;;;;-148.14;100.00;65945.72;5027978;28;20430;-83
2022/07/28 10:28:38;;;;;;;8.85;4.22;;;;;;;-148.14;100.00;65945.72;5054546;28;20079;-84
2022/07/28 10:31:09;;;;;;;10.82;4.57;;;;;;;-148.14;100.00;65945.72;5053862;28;20041;-83
2022/07/28 10:33:39;;;;;;;7.38;4.50;;;;;;;-148.14;100.00;65945.72;5025433;28;20033;-84
2022/07/28 10:36:05;;;;;;;10.35;4.78;;;;;;;-148.14;100.00;65945.72;5053900;28;20060;-84
2022/07/28 10:38:34;;;;;;;7.05;4.10;;;;;;;-148.14;100.00;65945.72;5051395;28;20021;-83
2022/07/28 10:41:02;;;;;;;11.07;5.30;;;;;;;-148.14;100.00;65945.72;5027696;28;20052;-83
2022/07/28 10:43:30;;;;;;;6.95;4.65;;;;;;;-148.14;100.00;65945.72;5053847;28;20033;-83
2022/07/28 10:45:59;;;;;;;9.50;4.97;;;;;;;-148.14;100.00;65945.72;5054017;28;20124;-83
2022/07/28 10:48:25;;;;;;;7.25;4.82;;;;;;;-148.14;100.00;65945.72;5053817;28;20025;-83
2022/07/28 10:50:55;;;;;;;6.95;4.90;;;;;;;-148.14;100.00;65945.72;5054160;28;20037;-84
2022/07/28 10:53:36;;;;;;;9.52;5.00;;;;;;;-148.14;100.00;65945.72;5053825;28;20036;-83
2022/07/28 10:56:10;;;;;;;10.57;4.93;;;;;;;-148.14;100.00;65945.72;5049837;28;20112;-83
2022/07/28 10:58:35;;;;;;;11.18;4.45;;;;;;;-148.14;100.00;65945.72;5054254;28;20372;-83
2022/07/28 11:01:02;;;;;;;9.48;5.28;;;;;;;-148.14;100.00;65945.72;5054401;28;20029;-83
2022/07/28 11:03:35;;;;;;;6.80;4.70;;;;;;;-148.14;100.00;65945.72;5051946;28;20044;-84
2022/07/28 11:06:22;;;;;;;7.35;4.32;;;;;;;-148.14;100.00;65945.72;5051989;28;20082;-83
2022/07/28 11:08:48;;;;;;;8.70;4.60;;;;;;;-148.14;100.00;65945.72;5052296;28;20103;-84
2022/07/28 11:11:14;;;;;;;8.88;5.20;;;;;;;-148.14;100.00;65945.72;5054137;28;20020;-82
2022/07/28 11:13:39;;;;;;;7.38;4.85;;;;;;;-148.14;100.00;65945.72;5053760;28;20029;-82